LDVA weather

Varaždin Airport
Varaždin, Varaždin County, Croatia

Public forecast

Using degrees Celsius for public forecast. Weather courtesy of forecast.io.

METAR (pilot weather report)

Closest report is Maribor Airport, 30.9 nm (57.3 km) WNW. Retrieved 2019/05/21 00:30 UTC (0 seconds ago):

LJMB 210030Z AUTO 19009KT 9999 NSC 13/08 Q1005

TAF (pilot weather forecast)

Forecast is more than 12 hours old.

Closest forecast is Maribor Airport, 30.9 nm (57.3 km) WNW. Retrieved 2019/05/20 00:06 UTC (1 day ago):

TAF LJMB 202300Z 2100/2124 20010KT 9999 SCT040 BKN100 TEMPO 2100/2118 SHRA FEW010 BKN030TCU BKN050 TEMPO 2100/2107 19005KT BECMG 2118/2121 20005KT FEW045 BKN070 PROB30 2121/2124 0500 FG VV002